Aérodrome :
LOGIN :

S'inscrire | Disclaimer

   EN    FR    IT 

 










Légende :    VFR   VFR Marginal   IFR   IFR Intensif   IFR Très Intensif
Visi : 
Plafond : 
>= 8 km
>= 3000ft
5 à 8 km
1000 à 3000 ft
1500m à 5 km
500 à 1000 ft
800 à 1500m
200 à 500 ft
< 800m
< 200 ft
Symboles :   Orages  Brouillard  Fortes neiges  Fortes précipitations  Vent > 20 kt
SIGMETs :   Divers  Orages  Givrage  Turbulence  Onde Orograph.  Cendres Volcan.






- Altitude de l'aérodrome : 614 ft
- Code IATA : CRL


EBCI - Charleroi

DERNIER METAR :
  • 071320Z 24011KT 9999 FEW012 BKN033 09/06 Q1015 TEMPO SCT012

METARs EXPIRÉS :
  • 071250Z 25011KT 9999 FEW012 BKN033 09/06 Q1016 TEMPO SCT012
  • 071220Z 24011KT 9999 FEW010 BKN035 09/06 Q1015 TEMPO SCT008
  • 071150Z 23011KT 9999 FEW008 BKN040 08/06 Q1015 TEMPO SCT008
  • 071120Z 23010KT 9999 FEW010 BKN040 09/06 Q1015 TEMPO SCT012
  • 071050Z 24009KT 9999 FEW009 BKN040 08/06 Q1016 TEMPO SCT012

TAF TAF EBCI
Valide du 07 à 12h jusqu'au 08 à 18h UTC


071110Z 0712/0818 23009KT 9999 FEW015 BKN040
PROB30
TEMPO 0718/0802 BKN008
BECMG 0802/0804 BKN008
TEMPO 0805/0810 22018G30KT 3500 RA
BECMG 0810/0812 FEW018
PROB40
TEMPO 0816/0818 22015G25KT 3500 SHRA BKN014CB



MET'MAP, la Météo Aéronautique d'un coup d'oeil ! - Copyright ORBIFLY Décembre 2007 - Disclaimer

ORBIFLY MET'MAP TEAM :

Programmation & Développement : Alexandra Zaïnal
Sur une idée originale de : Baudouin d'Aumeries
Assistance à la programmation : Marc-Olivier Méhu
Soutien technique & logistique : Manuel Goepfert

Contact : metmap@orbifly.com




SOURCES & CREDITS :

   NOAA